Brisbane, Queensland, Australia, Latitude 27°S 23' 52", Longitude 152° E 55' 35", Elevation 76 m

Sun 9 Aug 2020 12:55:02 am: Temperature: 13.9 °C, Humidity: 70 %, Wind speed: 0 km/h, Wind Gust: 0 km/h, Rain today: 0.0 mm, MSLP: 1013.68 hPa

Website under continual development from 10 years of weather data. Please contact us if you find issues or like to provide feedback.

Recent Observations

This page presents the weather data from the last 72 hours at 30 minute intervals.

Last updated at 12:55:02 am AEST on Sun 9 August 2020.

Last 24 hours
Date/Time(AEST) Temp. ( °C) Dew Point ( °C) Relative Humidity (%) Apparent Temp. ( °C) Wind Direction Wind Speed (kph) Wind Gust (kph) Wind Speed (kts) Wind Gust (kts) MSL Pressure (hPa) Rain since midnight (mm)
9/08 12:55 am 13.9 8.6 70 13.6 CALM 0 0 0 0 1013.68 0.0
9/08 12:25 am 14.8 8.5 66 10.3 W 6 21 3 11 1013.88 0.0
8/08 11:55 pm 15.2 8.6 65 8.6 W 9 15 5 8 1013.82 0.0
8/08 11:25 pm 15.7 8.6 63 9.1 W 9 17 5 9 1013.88 0.0
8/08 10:55 pm 15.9 8.4 61 9.9 WSW 8 15 4 8 1013.95 0.0
8/08 10:25 pm 16.3 8.5 60 10.4 W 8 15 4 8 1013.65 0.0
8/08 9:55 pm 16.6 8.8 60 11.4 W 7 19 4 10 1013.75 0.0
8/08 9:25 pm 16.9 9.3 61 11.2 W 8 17 4 9 1013.68 0.0
8/08 8:55 pm 17.4 9.3 59 10.3 WNW 10 19 5 10 1013.78 0.0
8/08 8:25 pm 17.8 9.2 57 10.6 WNW 10 19 5 10 1013.85 0.0
8/08 7:55 pm 18.2 9.5 57 10.4 WNW 11 21 6 11 1013.51 0.0
8/08 7:25 pm 18.4 9.8 57 10 W 12 21 6 11 1013.41 0.0
8/08 6:55 pm 18.6 10.4 59 12.5 W 9 17 5 9 1013.38 0.0
8/08 6:25 pm 19.1 10.9 59 15.2 W 6 15 3 8 1012.90 0.0
8/08 5:55 pm 19.7 10.7 56 13.6 W 9 17 5 9 1012.70 0.0
8/08 5:25 pm 20.4 10.8 54 16.5 W 6 15 3 8 1012.26 0.0
8/08 4:55 pm 21.5 11.5 53 17.8 WSW 6 10 3 5 1011.99 0.0
8/08 4:25 pm 22.6 12.5 53 19.2 WSW 6 17 3 9 1011.58 0.0
8/08 3:55 pm 23.0 14.0 57 20.1 WNW 6 15 3 8 1011.14 0.0
8/08 3:25 pm 23.1 14.6 59 18.3 WSW 9 23 5 12 1011.14 0.0
8/08 2:55 pm 23.4 15.2 60 18.8 SW 9 15 5 8 1011.31 0.0
8/08 2:25 pm 24.0 15.2 58 19.4 W 9 21 5 11 1011.38 0.0
8/08 1:55 pm 23.9 16.2 62 21.1 WSW 7 14 4 8 1011.79 0.0
8/08 1:25 pm 23.9 16.2 62 19.7 WNW 9 21 5 11 1012.09 0.0
8/08 12:55 pm 23.8 17.0 66 20.6 WSW 8 14 4 8 1012.33 0.0
8/08 12:25 pm 23.1 16.8 68 18.4 W 10 15 5 8 1012.77 0.0
8/08 11:55 am 22.9 16.3 66 18.7 NNW 9 19 5 10 1013.07 0.0
8/08 11:25 am 21.2 16.8 76 19.3 WNW 6 12 3 6 1013.51 0.0
8/08 10:55 am 21.7 17.5 77 22.2 SSW 3 6 2 3 1013.58 0.0
8/08 10:25 am 20.6 17.4 82 23.1 CALM 0 2 0 1 1013.88 0.0
8/08 9:55 am 20.3 17.5 84 22.2 SSW 2 6 1 3 1014.73 0.0
8/08 9:25 am 18.7 17.0 90 19.7 E 2 6 1 3 1014.73 0.0
8/08 8:55 am 16.7 15.8 94 18.6 E 0 2 0 1 1014.70 0.0
8/08 8:25 am 16.0 15.5 97 15.7 NNE 3 8 2 4 1014.80 0.0
8/08 7:55 am 15.4 15.1 98 17 CALM 0 0 0 0 1015.04 0.0
8/08 7:25 am 14.8 14.5 98 16.2 CALM 0 2 0 1 1015.10 0.0
8/08 6:55 am 14.4 14.1 98 15.7 CALM 0 8 0 4 1014.73 0.0
8/08 6:25 am 14.5 14.0 97 15.8 CALM 0 2 0 1 1014.05 0.0
8/08 5:55 am 15.1 14.6 97 16.6 CALM 0 2 0 1 1013.55 0.0
8/08 5:25 am 15.2 14.9 98 16.8 CALM 0 2 0 1 1013.55 0.0
8/08 4:55 am 15.3 14.8 97 16.2 SW 1 2 1 1 1013.58 0.0
8/08 4:25 am 15.4 15.1 98 17 CALM 0 0 0 0 1013.61 0.0
8/08 3:55 am 15.6 15.1 97 17.3 CALM 0 0 0 0 1013.34 0.0
8/08 3:25 am 15.8 15.5 98 15.5 SW 3 6 2 3 1013.55 0.0
8/08 2:55 am 16.1 15.7 98 18 CALM 0 0 0 0 1013.48 0.0
8/08 2:25 am 16.0 15.7 98 17.9 CALM 0 0 0 0 1013.58 0.0
8/08 1:55 am 16.0 15.7 98 17.9 CALM 0 0 0 0 1013.85 0.0
8/08 1:25 am 16.0 15.7 98 17.9 CALM 0 0 0 0 1014.16 0.0
24 to 48 hours ago
Date/Time(AEST) Temp. °C Dew Point °C Relative Humidity % Appararent Temp. °C Wind Direction Wind Speed (kph) Wind Gust (kph) Wind Speed (kts) Wind Gust (kts) MSL Pressure (hPa) Rain since midnight (mm)
8/08 12:55 am 16.0 15.7 98 17.9 CALM 0 0 0 0 1014.43 0.0
8/08 12:25 am 16.1 15.7 98 18 CALM 0 0 0 0 1014.39 0.0
7/08 11:55 pm 16.3 15.8 97 18.2 CALM 0 0 0 0 1014.97 14.0
7/08 11:25 pm 16.3 16.0 98 18.3 CALM 0 0 0 0 1015.10 14.0
7/08 10:55 pm 16.4 16.1 98 18.4 CALM 0 0 0 0 1015.24 14.0
7/08 10:25 pm 16.3 15.9 97 18.2 CALM 0 0 0 0 1015.61 14.0
7/08 9:55 pm 16.3 15.8 97 18.2 CALM 0 0 0 0 1015.85 14.0
7/08 9:25 pm 16.3 15.8 97 18.2 CALM 0 0 0 0 1015.78 14.0
7/08 8:55 pm 16.2 15.7 97 18.1 CALM 0 0 0 0 1015.88 14.0
7/08 8:25 pm 16.3 15.8 97 18.2 CALM 0 0 0 0 1015.82 14.0
7/08 7:55 pm 16.3 15.8 97 18.2 CALM 0 0 0 0 1016.05 14.0
7/08 7:25 pm 16.3 15.9 97 18.2 CALM 0 0 0 0 1016.12 14.0
7/08 6:55 pm 16.3 15.9 97 18.2 CALM 0 0 0 0 1016.09 14.0
7/08 6:25 pm 16.3 15.7 96 18.2 CALM 0 0 0 0 1015.54 14.0
7/08 5:55 pm 16.3 15.7 96 18.2 CALM 0 0 0 0 1015.24 13.8
7/08 5:25 pm 16.4 15.8 96 18.3 CALM 0 0 0 0 1015.34 13.8
7/08 4:55 pm 16.6 16.0 96 17.9 SW 1 6 1 3 1014.87 13.8
7/08 4:25 pm 16.8 16.1 96 18.8 CALM 0 2 0 1 1014.93 13.4
7/08 3:55 pm 16.7 15.9 95 18.6 CALM 0 2 0 1 1014.70 12.4
7/08 3:25 pm 16.6 15.6 94 17 SW 2 4 1 2 1014.39 11.8
7/08 2:55 pm 17.1 15.9 93 18.4 NW 1 10 1 5 1013.58 6.4
7/08 2:25 pm 17.1 15.8 92 18.3 NE 1 4 1 2 1013.28 4.8
7/08 1:55 pm 17.2 15.2 88 16.1 NE 4 6 2 3 1012.94 1.8
7/08 1:25 pm 17.7 15.3 86 8.2 NNE 16 23 9 12 1013.44 0.8
7/08 12:55 pm 18.8 15.4 81 9.4 NNE 16 33 9 18 1012.50 0.0
7/08 12:25 pm 20.7 15.9 74 10.7 NE 17 33 9 18 1013.58 0.0
7/08 11:55 am 21.6 15.4 68 13.6 ENE 14 23 8 12 1014.63 0.0
7/08 11:25 am 21.6 15.0 66 14.8 ENE 12 27 6 15 1015.78 0.0
7/08 10:55 am 22.0 15.1 65 17.4 ENE 9 21 5 11 1016.49 0.0
7/08 10:25 am 21.7 15.5 68 18.6 ENE 7 17 4 9 1017.44 0.0
7/08 9:55 am 21.7 15.7 69 18 ENE 5 14 3 8 1017.51 0.0
7/08 9:25 am 21.6 16.8 74 20.4 ESE 5 14 3 8 1017.51 0.0
7/08 8:55 am 20.3 16.8 80 20.5 ESE 3 6 2 3 1018.29 0.0
7/08 8:25 am 17.6 15.4 87 19.4 CALM 0 2 0 1 1018.49 0.0
7/08 7:55 am 16.2 14.4 89 16.2 SW 2 6 1 3 1018.32 0.0
7/08 7:25 am 15.3 13.9 91 16.5 CALM 0 2 0 1 1018.52 0.0
7/08 6:55 am 14.9 13.5 91 16 CALM 0 0 0 0 1018.22 0.0
7/08 6:25 am 15.1 13.6 91 14.8 SW 2 2 1 1 1017.75 0.0
7/08 5:55 am 15.0 13.4 90 16.1 CALM 0 0 0 0 1018.02 0.0
7/08 5:25 am 15.3 13.6 90 16.5 CALM 0 6 0 3 1017.54 0.0
7/08 4:55 am 15.4 13.6 89 16.5 CALM 0 2 0 1 1017.27 0.0
7/08 4:25 am 15.8 13.8 88 17 CALM 0 4 0 2 1017.20 0.0
7/08 3:55 am 15.8 14.0 89 17.1 CALM 0 6 0 3 1017.37 0.0
7/08 3:25 am 15.6 13.7 89 16.8 CALM 0 0 0 0 1017.17 0.0
7/08 2:55 am 15.8 13.8 88 17 CALM 0 0 0 0 1017.41 0.0
7/08 2:25 am 15.8 13.7 87 16.9 CALM 0 2 0 1 1017.47 0.0
7/08 1:55 am 15.2 13.4 89 16.3 CALM 0 0 0 0 1017.47 0.0
7/08 1:25 am 14.8 13.0 89 15.7 CALM 0 0 0 0 1017.58 0.0
48 to 72 hours ago
Date/Time(AEST) Temp. °C Dew Point °C Relative Humidity % Appararent Temp. °C Wind Direction Wind Speed (kph) Wind Gust (kph) Wind Speed (kts) Wind Gust (kts) MSL Pressure (hPa) Rain since midnight (mm)
7/08 12:55 am 14.6 12.4 87 15.4 CALM 0 0 0 0 1017.88 0.0
7/08 12:25 am 14.8 12.3 85 15.5 CALM 0 0 0 0 1018.08 0.0
6/08 11:55 pm 14.9 12.2 84 15.6 CALM 0 0 0 0 1018.08 0.0
6/08 11:25 pm 15.0 12.1 83 15.7 CALM 0 0 0 0 1018.35 0.0
6/08 10:55 pm 14.8 11.7 82 15.3 CALM 0 0 0 0 1018.29 0.0
6/08 10:25 pm 14.4 11.2 81 14.8 CALM 0 0 0 0 1018.39 0.0
6/08 9:55 pm 14.1 11.1 82 14.4 CALM 0 0 0 0 1018.29 0.0
6/08 9:25 pm 13.8 10.6 81 14 CALM 0 0 0 0 1018.46 0.0
6/08 8:55 pm 13.6 10.2 80 13.7 CALM 0 0 0 0 1018.22 0.0
6/08 8:25 pm 13.9 9.5 75 13.8 CALM 0 0 0 0 1017.95 0.0
6/08 7:55 pm 14.4 9.4 72 14.3 CALM 0 0 0 0 1017.68 0.0
6/08 7:25 pm 15.2 9.1 67 15 CALM 0 2 0 1 1017.31 0.0
6/08 6:55 pm 16.3 9.7 65 16.3 CALM 0 0 0 0 1017.17 0.0
6/08 6:25 pm 17.2 9.1 59 17 CALM 0 0 0 0 1017.10 0.0
6/08 5:55 pm 18.5 9.0 54 18.3 CALM 0 0 0 0 1016.63 0.0
6/08 5:25 pm 20.2 8.2 46 18.4 NNE 2 4 1 2 1016.32 0.0
6/08 4:55 pm 21.2 7.1 40 17 NNE 5 10 3 5 1016.19 0.0
6/08 4:25 pm 22.2 8.3 41 17.6 E 6 12 3 6 1015.71 0.0
6/08 3:55 pm 23.4 7.1 35 17.8 ENE 7 15 4 8 1015.48 0.0
6/08 3:25 pm 23.7 8.5 38 19.2 ENE 6 14 3 8 1015.27 0.0
6/08 2:55 pm 24.3 6.6 32 19.3 ESE 6 12 3 6 1015.14 0.0
6/08 2:25 pm 26.1 8.1 32 21.5 ENE 6 14 3 8 1015.17 0.0
6/08 1:55 pm 25.7 7.3 31 20.9 E 6 15 3 8 1014.97 0.0
6/08 1:25 pm 25.3 8.3 34 20.7 E 6 10 3 5 1015.17 0.0
6/08 12:55 pm 25.3 7.0 31 21.8 E 4 8 2 4 1015.61 0.0
6/08 12:25 pm 24.2 6.9 33 19.3 ESE 6 12 3 6 1015.78 0.0
6/08 11:55 am 24.3 7.5 34 19.5 SE 6 10 3 5 1016.49 0.0
6/08 11:25 am 23.8 7.8 36 21.2 ESE 3 8 2 4 1016.76 0.0
6/08 10:55 am 23.0 9.0 41 20 SSE 4 8 2 4 1017.27 0.0
6/08 10:25 am 21.6 8.8 44 19.2 SSE 3 6 2 3 1017.85 0.0
6/08 9:55 am 20.3 9.6 50 18.1 SE 0 6 0 3 1017.98 0.0
6/08 9:25 am 18.6 8.2 51 18.2 E 0 6 0 3 1017.98 0.0
6/08 8:55 am 17.3 8.2 55 16.9 CALM 0 4 0 2 1017.98 0.0
6/08 8:25 am 13.7 7.9 68 13.2 CALM 0 0 0 0 1017.81 0.0
6/08 7:55 am 10.5 7.2 80 9.8 CALM 0 0 0 0 1017.54 0.0
6/08 7:25 am 8.3 5.8 84 7.3 CALM 0 0 0 0 1017.17 0.0
6/08 6:55 am 7.6 5.2 85 6.5 CALM 0 0 0 0 1016.83 0.0
6/08 6:25 am 7.3 4.8 84 6.1 CALM 0 0 0 0 1016.56 0.0
6/08 5:55 am 7.2 5.0 86 6.1 CALM 0 0 0 0 1015.98 0.0
6/08 5:25 am 7.4 5.1 85 6.3 CALM 0 0 0 0 1015.78 0.0
6/08 4:55 am 7.8 5.1 83 6.7 CALM 0 0 0 0 1015.44 0.0
6/08 4:25 am 8.0 5.3 83 6.9 CALM 0 0 0 0 1015.21 0.0
6/08 3:55 am 7.9 5.6 85 6.9 CALM 0 0 0 0 1015.07 0.0
6/08 3:25 am 8.1 5.7 85 7.1 CALM 0 0 0 0 1015.04 0.0
6/08 2:55 am 8.3 5.7 84 7.3 CALM 0 0 0 0 1015.17 0.0
6/08 2:25 am 8.4 5.7 83 7.4 CALM 0 0 0 0 1015.24 0.0
6/08 1:55 am 8.7 6.2 84 7.8 CALM 0 0 0 0 1015.27 0.0
6/08 1:25 am 9.1 6.7 85 8.3 CALM 0 0 0 0 1015.14 0.0